createdAt,value
2022-09-25T00:00:28.949Z,11.00
2022-09-25T00:02:57.060Z,11.10
2022-09-25T00:05:27.459Z,11.20
2022-09-25T00:07:57.526Z,11.20
2022-09-25T00:10:31.934Z,11.30
2022-09-25T00:13:12.078Z,11.50
2022-09-25T00:15:50.254Z,11.50
2022-09-25T00:18:38.654Z,11.40
2022-09-25T00:21:09.788Z,11.20
2022-09-25T00:23:40.453Z,11.00
2022-09-25T00:26:09.255Z,11.00
2022-09-25T00:28:39.937Z,10.90
2022-09-25T00:31:18.609Z,11.10
2022-09-25T00:33:51.992Z,10.90
2022-09-25T00:36:22.558Z,10.60
2022-09-25T00:39:01.264Z,10.50
2022-09-25T00:41:32.166Z,10.40
2022-09-25T00:44:04.920Z,10.60
2022-09-25T00:46:53.154Z,10.60
2022-09-25T00:49:34.983Z,10.70
2022-09-25T00:52:14.215Z,10.80
2022-09-25T00:54:56.978Z,10.80
2022-09-25T00:57:31.556Z,10.80
2022-09-25T01:00:10.095Z,10.80
2022-09-25T01:02:43.198Z,10.70
2022-09-25T01:05:21.681Z,10.70
2022-09-25T01:07:58.058Z,10.60
2022-09-25T01:10:31.619Z,10.60
2022-09-25T01:13:08.471Z,10.60
2022-09-25T01:15:52.604Z,10.60
2022-09-25T01:19:05.015Z,10.80
2022-09-25T01:22:05.703Z,10.90
2022-09-25T01:25:10.373Z,10.90
2022-09-25T01:27:56.169Z,10.70
2022-09-25T01:30:23.434Z,10.60
2022-09-25T01:33:10.134Z,10.60
2022-09-25T01:35:52.449Z,10.70
2022-09-25T01:38:34.374Z,10.70
2022-09-25T01:41:19.959Z,10.80
2022-09-25T01:44:01.129Z,10.80
2022-09-25T01:46:37.575Z,10.80
2022-09-25T01:49:12.377Z,10.70
2022-09-25T01:51:44.619Z,10.60
2022-09-25T01:54:16.459Z,10.50
2022-09-25T01:56:59.606Z,10.40
2022-09-25T01:59:44.402Z,10.30
2022-09-25T02:02:16.065Z,10.20
2022-09-25T02:05:14.870Z,10.20
2022-09-25T02:07:47.615Z,10.10
2022-09-25T02:10:32.574Z,10.10
2022-09-25T02:13:08.854Z,10.20
2022-09-25T02:15:41.275Z,10.40
2022-09-25T02:18:34.859Z,10.50
2022-09-25T02:21:37.322Z,10.60
2022-09-25T02:24:21.805Z,10.60
2022-09-25T02:26:50.461Z,10.70
2022-09-25T02:29:19.911Z,10.70
2022-09-25T02:34:14.711Z,10.80
2022-09-25T02:36:52.645Z,10.90
2022-09-25T02:39:28.134Z,10.80
2022-09-25T02:42:50.420Z,10.80
2022-09-25T02:45:56.241Z,10.90
2022-09-25T02:48:57.299Z,11.00
2022-09-25T02:52:07.802Z,11.00
2022-09-25T02:55:05.458Z,11.00
2022-09-25T02:57:56.279Z,11.00
2022-09-25T03:00:24.954Z,10.80
2022-09-25T03:03:08.364Z,10.70
2022-09-25T03:05:44.389Z,10.60
2022-09-25T03:08:33.471Z,10.60
2022-09-25T03:11:04.065Z,10.50
2022-09-25T03:13:33.538Z,10.50
2022-09-25T03:16:38.330Z,10.50
2022-09-25T03:19:18.697Z,10.50
2022-09-25T03:21:46.739Z,10.60
2022-09-25T03:24:25.583Z,10.60
2022-09-25T03:27:01.759Z,10.60
2022-09-25T03:29:40.134Z,10.60
2022-09-25T03:32:07.938Z,10.60
2022-09-25T03:34:37.158Z,10.80
2022-09-25T03:37:08.319Z,10.90
2022-09-25T03:39:44.779Z,11.00
2022-09-25T03:42:35.344Z,10.90
2022-09-25T03:45:03.763Z,10.90
2022-09-25T03:47:32.054Z,10.80
2022-09-25T03:50:00.748Z,10.70
2022-09-25T03:52:29.435Z,10.60
2022-09-25T03:54:59.158Z,10.70
2022-09-25T03:57:27.402Z,10.80
2022-09-25T04:00:03.654Z,10.90
2022-09-25T04:02:33.048Z,10.90
2022-09-25T04:05:05.239Z,10.80
2022-09-25T04:07:39.720Z,10.90
2022-09-25T04:10:08.489Z,11.00
2022-09-25T04:12:38.921Z,11.00
2022-09-25T04:15:19.119Z,10.90
2022-09-25T04:17:48.610Z,10.80
2022-09-25T04:20:16.990Z,10.70
2022-09-25T04:22:50.900Z,10.60
2022-09-25T04:25:24.546Z,10.60
2022-09-25T04:27:58.739Z,10.50
2022-09-25T04:30:29.514Z,10.60
2022-09-25T04:33:19.913Z,10.70
2022-09-25T04:35:49.700Z,10.80
2022-09-25T04:38:18.654Z,10.80
2022-09-25T04:40:48.168Z,10.70
2022-09-25T04:43:19.724Z,10.60
2022-09-25T04:45:49.399Z,10.50
2022-09-25T04:48:17.643Z,10.50
2022-09-25T04:50:52.056Z,10.50
2022-09-25T04:53:20.942Z,10.50
2022-09-25T04:55:51.587Z,10.50
2022-09-25T04:58:28.804Z,10.50
2022-09-25T05:01:11.505Z,10.40
2022-09-25T05:03:40.166Z,10.50
2022-09-25T05:06:08.659Z,10.50
2022-09-25T05:08:37.204Z,10.50
2022-09-25T05:11:11.412Z,10.50
2022-09-25T05:13:44.158Z,10.50
2022-09-25T05:16:20.329Z,10.50
2022-09-25T05:18:49.515Z,10.50
2022-09-25T05:21:19.008Z,10.50
2022-09-25T05:23:47.879Z,10.50
2022-09-25T05:26:16.078Z,10.50
2022-09-25T05:28:46.685Z,10.50
2022-09-25T05:31:15.934Z,10.50
2022-09-25T05:33:44.543Z,10.50
2022-09-25T05:36:21.029Z,10.50
2022-09-25T05:38:49.299Z,10.50
2022-09-25T05:41:18.881Z,10.50
2022-09-25T05:43:50.459Z,10.50
2022-09-25T05:46:28.927Z,10.60
2022-09-25T05:49:18.879Z,10.60
2022-09-25T05:51:48.618Z,10.70
2022-09-25T05:54:19.013Z,10.90
2022-09-25T05:56:48.534Z,10.90
2022-09-25T05:59:26.999Z,10.90
2022-09-25T06:01:56.841Z,11.00
2022-09-25T06:04:25.629Z,11.00
2022-09-25T06:06:54.029Z,10.90
2022-09-25T06:09:24.368Z,10.90
2022-09-25T06:11:54.514Z,11.00
2022-09-25T06:14:22.796Z,11.00
2022-09-25T06:16:50.910Z,11.00
2022-09-25T06:19:18.009Z,11.00
2022-09-25T06:21:53.573Z,10.90
2022-09-25T06:24:22.974Z,10.90
2022-09-25T06:26:51.859Z,10.80
2022-09-25T06:29:20.624Z,10.80
2022-09-25T06:31:51.114Z,10.90
2022-09-25T06:34:27.463Z,11.10
2022-09-25T06:36:58.155Z,11.20
2022-09-25T06:39:30.278Z,11.20
2022-09-25T06:41:59.596Z,11.30
2022-09-25T06:44:38.254Z,11.40
2022-09-25T06:47:06.827Z,11.50
2022-09-25T06:49:37.185Z,11.50
2022-09-25T06:52:05.806Z,11.50
2022-09-25T06:54:34.839Z,11.50
2022-09-25T06:57:03.009Z,11.40
2022-09-25T06:59:31.694Z,11.30
2022-09-25T07:02:23.330Z,11.20
2022-09-25T07:04:55.325Z,11.20
2022-09-25T07:07:25.075Z,11.10
2022-09-25T07:09:53.473Z,11.10
2022-09-25T07:12:23.403Z,11.10
2022-09-25T07:14:53.825Z,11.00
2022-09-25T07:17:22.148Z,10.90
2022-09-25T07:19:49.138Z,11.00
2022-09-25T07:22:18.534Z,10.90
2022-09-25T07:24:48.925Z,10.90
2022-09-25T07:27:26.199Z,11.00
2022-09-25T07:29:57.634Z,11.00
2022-09-25T07:32:24.685Z,11.00
2022-09-25T07:34:52.434Z,11.10
2022-09-25T07:37:21.813Z,11.10
2022-09-25T07:40:07.372Z,11.30
2022-09-25T07:42:36.515Z,11.40
2022-09-25T07:45:15.034Z,11.50
2022-09-25T07:47:54.614Z,11.70
2022-09-25T07:50:24.456Z,11.70
2022-09-25T07:52:54.258Z,11.80
2022-09-25T07:55:22.986Z,11.90
2022-09-25T07:57:58.519Z,12.00
2022-09-25T08:00:28.669Z,12.00
2022-09-25T08:03:00.050Z,12.10
2022-09-25T08:05:35.973Z,12.10
2022-09-25T08:08:04.951Z,12.10
2022-09-25T08:10:42.673Z,12.10
2022-09-25T08:13:18.680Z,12.20
2022-09-25T08:15:48.794Z,12.20
2022-09-25T08:18:22.863Z,12.20
2022-09-25T08:20:56.023Z,12.20
2022-09-25T08:23:26.339Z,12.30
2022-09-25T08:25:56.215Z,12.30
2022-09-25T08:28:24.340Z,12.30
2022-09-25T08:31:01.636Z,12.30
2022-09-25T08:33:29.111Z,12.30
2022-09-25T08:36:08.059Z,12.20
2022-09-25T08:38:36.489Z,12.10
2022-09-25T08:41:29.419Z,12.10
2022-09-25T08:44:34.818Z,12.10
2022-09-25T08:47:59.719Z,12.10
2022-09-25T08:50:34.148Z,12.30
2022-09-25T08:53:24.070Z,12.30
2022-09-25T08:56:17.886Z,12.30
2022-09-25T08:59:31.496Z,12.20
2022-09-25T09:02:21.615Z,12.10
2022-09-25T09:05:05.206Z,11.90
2022-09-25T09:07:39.755Z,11.80
2022-09-25T09:10:54.505Z,11.90
2022-09-25T09:13:47.976Z,12.10
2022-09-25T09:16:26.690Z,12.30
2022-09-25T09:19:03.399Z,12.40
2022-09-25T09:21:47.516Z,12.60
2022-09-25T09:24:25.884Z,12.70
2022-09-25T09:27:27.084Z,12.70
2022-09-25T09:30:16.040Z,12.70
2022-09-25T09:33:20.254Z,12.90
2022-09-25T09:36:11.969Z,12.90
2022-09-25T09:38:46.334Z,12.90
2022-09-25T09:41:44.759Z,12.90
2022-09-25T09:44:29.768Z,12.90
2022-09-25T09:47:42.029Z,13.00
2022-09-25T09:50:29.761Z,13.10
2022-09-25T09:53:07.969Z,13.20
2022-09-25T09:56:01.117Z,13.40
2022-09-25T09:59:11.215Z,13.40
2022-09-25T10:01:45.377Z,13.60
2022-09-25T10:04:23.909Z,13.80
2022-09-25T10:07:08.816Z,13.90
2022-09-25T10:09:45.573Z,14.00
2022-09-25T10:12:20.909Z,14.10
2022-09-25T10:14:57.658Z,14.00
2022-09-25T10:17:28.445Z,13.90
2022-09-25T10:20:15.564Z,13.80
2022-09-25T10:22:47.478Z,13.90
2022-09-25T10:25:57.090Z,13.90
2022-09-25T10:28:36.695Z,13.60
2022-09-25T10:31:09.456Z,13.50
2022-09-25T10:33:37.874Z,13.40
2022-09-25T10:36:06.073Z,13.30
2022-09-25T10:38:56.673Z,13.40
2022-09-25T10:41:46.480Z,13.50
2022-09-25T10:44:35.624Z,13.90
2022-09-25T10:47:48.595Z,14.30
2022-09-25T10:50:37.129Z,14.70
2022-09-25T10:53:06.282Z,14.90
2022-09-25T10:55:53.678Z,14.90
2022-09-25T10:58:39.159Z,14.80
2022-09-25T11:01:18.185Z,14.90
2022-09-25T11:04:37.109Z,15.00
2022-09-25T11:07:19.798Z,14.90
2022-09-25T11:09:59.960Z,14.60
2022-09-25T11:12:32.709Z,14.30
2022-09-25T11:15:05.961Z,14.10
2022-09-25T11:17:52.430Z,14.10
2022-09-25T11:20:35.864Z,14.20
2022-09-25T11:23:40.979Z,14.40
2022-09-25T11:26:35.835Z,14.90
2022-09-25T11:29:16.967Z,15.20
2022-09-25T11:32:18.134Z,15.40
2022-09-25T11:35:40.028Z,15.60
2022-09-25T11:39:10.621Z,15.70
2022-09-25T11:42:14.760Z,15.90
2022-09-25T11:45:02.109Z,15.70
2022-09-25T11:48:20.474Z,15.40
2022-09-25T11:54:42.634Z,15.10
2022-09-25T11:57:52.695Z,15.10
2022-09-25T12:00:48.074Z,15.00
2022-09-25T12:04:00.121Z,15.00
2022-09-25T12:07:14.000Z,15.00
2022-09-25T12:10:19.219Z,15.00
2022-09-25T12:13:41.573Z,15.00
2022-09-25T12:16:20.209Z,15.00
2022-09-25T12:19:47.134Z,15.10
2022-09-25T12:29:11.167Z,15.60
2022-09-25T12:31:46.434Z,15.80
2022-09-25T12:35:00.507Z,16.00
2022-09-25T12:38:01.128Z,16.10
2022-09-25T12:40:40.664Z,16.00
2022-09-25T12:43:48.574Z,16.00
2022-09-25T12:46:43.554Z,16.10
2022-09-25T12:49:16.134Z,16.20
2022-09-25T12:51:55.143Z,16.10
2022-09-25T12:54:41.414Z,16.10
2022-09-25T12:57:29.614Z,16.10
2022-09-25T13:00:12.789Z,16.00
2022-09-25T13:03:14.585Z,16.20
2022-09-25T13:06:16.924Z,16.10
2022-09-25T13:09:18.784Z,16.10
2022-09-25T13:12:02.230Z,16.00
2022-09-25T13:14:52.975Z,15.90
2022-09-25T13:17:23.840Z,15.90
2022-09-25T13:19:52.985Z,16.00
2022-09-25T13:22:28.498Z,16.10
2022-09-25T13:25:18.179Z,16.20
2022-09-25T13:27:48.734Z,16.40
2022-09-25T13:30:29.015Z,16.50
2022-09-25T13:33:38.792Z,16.50
2022-09-25T13:36:17.375Z,16.40
2022-09-25T13:39:08.033Z,16.40
2022-09-25T13:41:39.413Z,16.40
2022-09-25T13:44:43.805Z,16.30
2022-09-25T13:47:33.885Z,16.20
2022-09-25T13:50:24.329Z,16.10
2022-09-25T13:53:20.472Z,16.10
2022-09-25T13:56:04.958Z,15.90
2022-09-25T13:59:03.643Z,15.80
2022-09-25T14:01:38.205Z,15.70
2022-09-25T14:05:00.874Z,15.70
2022-09-25T14:07:30.347Z,15.80
2022-09-25T14:10:02.867Z,15.80
2022-09-25T14:12:49.242Z,15.80
2022-09-25T14:15:36.399Z,15.80
2022-09-25T14:18:24.677Z,15.80
2022-09-25T14:21:00.464Z,15.80
2022-09-25T14:23:35.135Z,15.80
2022-09-25T14:26:20.168Z,15.80
2022-09-25T14:28:51.698Z,15.80
2022-09-25T14:31:43.759Z,15.90
2022-09-25T14:34:32.710Z,15.90
2022-09-25T14:37:32.441Z,15.90
2022-09-25T14:40:22.972Z,15.80
2022-09-25T14:43:29.414Z,15.80
2022-09-25T14:46:12.708Z,15.80
2022-09-25T14:49:07.280Z,15.80
2022-09-25T14:51:45.042Z,15.80
2022-09-25T14:54:27.300Z,15.80
2022-09-25T14:56:58.159Z,15.70
2022-09-25T14:59:59.873Z,15.70
2022-09-25T15:02:44.448Z,15.70
2022-09-25T15:05:35.089Z,15.70
2022-09-25T15:08:21.889Z,15.70
2022-09-25T15:10:49.480Z,15.70
2022-09-25T15:13:24.624Z,15.70
2022-09-25T15:16:17.601Z,15.60
2022-09-25T15:18:51.543Z,15.60
2022-09-25T15:21:35.717Z,15.60
2022-09-25T15:24:10.907Z,15.40
2022-09-25T15:26:54.178Z,15.40
2022-09-25T15:29:45.740Z,15.20
2022-09-25T15:32:29.521Z,15.10
2022-09-25T15:35:11.789Z,14.90
2022-09-25T15:37:39.564Z,14.90
2022-09-25T15:40:29.335Z,14.90
2022-09-25T15:42:59.814Z,14.80
2022-09-25T15:46:07.796Z,14.80
2022-09-25T15:48:58.068Z,14.40
2022-09-25T15:51:36.171Z,14.20
2022-09-25T15:54:42.293Z,14.10
2022-09-25T15:57:15.386Z,14.00
2022-09-25T16:00:12.635Z,14.10
2022-09-25T16:03:16.755Z,14.10
2022-09-25T16:05:57.834Z,14.00
2022-09-25T16:08:33.833Z,14.00
2022-09-25T16:11:17.661Z,13.90
2022-09-25T16:13:51.664Z,13.90
2022-09-25T16:16:36.388Z,13.80
2022-09-25T16:19:32.275Z,13.80
2022-09-25T16:22:15.154Z,13.80
2022-09-25T16:24:54.234Z,13.80
2022-09-25T16:27:32.274Z,13.70
2022-09-25T16:30:10.245Z,13.70
2022-09-25T16:32:42.914Z,13.70
2022-09-25T16:35:40.660Z,13.60
2022-09-25T16:38:41.638Z,13.50
2022-09-25T16:41:28.508Z,13.40
2022-09-25T16:44:18.390Z,13.40
2022-09-25T16:47:02.443Z,13.20
2022-09-25T16:49:34.704Z,13.10
2022-09-25T16:52:11.989Z,13.00
2022-09-25T16:54:49.069Z,13.00
2022-09-25T16:57:20.032Z,13.00
2022-09-25T16:59:56.870Z,13.00
2022-09-25T17:02:37.303Z,13.00
2022-09-25T17:05:13.934Z,12.90
2022-09-25T17:07:43.386Z,12.90
2022-09-25T17:10:20.068Z,12.90
2022-09-25T17:12:54.490Z,12.90
2022-09-25T17:15:30.880Z,12.90
2022-09-25T17:18:05.275Z,12.80
2022-09-25T17:20:34.206Z,12.80
2022-09-25T17:23:05.259Z,12.70
2022-09-25T17:26:01.893Z,12.70
2022-09-25T17:28:33.456Z,12.60
2022-09-25T17:31:04.506Z,12.60
2022-09-25T17:33:33.058Z,12.60
2022-09-25T17:36:05.922Z,12.50
2022-09-25T17:38:41.831Z,12.40
2022-09-25T17:41:41.531Z,12.40
2022-09-25T17:44:17.769Z,12.30
2022-09-25T17:46:52.129Z,12.30
2022-09-25T17:49:23.770Z,12.30
2022-09-25T17:51:55.869Z,12.30
2022-09-25T17:54:24.395Z,12.30
2022-09-25T17:56:53.878Z,12.30
2022-09-25T17:59:23.930Z,12.30
2022-09-25T18:01:53.823Z,12.30
2022-09-25T18:04:28.388Z,12.30
2022-09-25T18:07:02.281Z,12.20
2022-09-25T18:09:29.280Z,12.20
2022-09-25T18:12:07.326Z,12.20
2022-09-25T18:14:44.547Z,12.20
2022-09-25T18:17:15.208Z,12.20
2022-09-25T18:20:04.046Z,12.20
2022-09-25T18:22:34.510Z,12.20
2022-09-25T18:25:02.964Z,12.20
2022-09-25T18:27:34.074Z,12.10
2022-09-25T18:30:11.499Z,12.10
2022-09-25T18:32:42.638Z,12.10
2022-09-25T18:35:14.339Z,12.10
2022-09-25T18:37:41.934Z,12.10
2022-09-25T18:40:19.413Z,12.10
2022-09-25T18:42:48.417Z,12.20
2022-09-25T18:45:18.563Z,12.30
2022-09-25T18:47:46.974Z,12.30
2022-09-25T18:50:20.942Z,12.30
2022-09-25T18:52:50.206Z,12.30
2022-09-25T18:56:11.892Z,12.20
2022-09-25T18:58:48.326Z,12.20
2022-09-25T19:01:18.116Z,12.20
2022-09-25T19:03:53.359Z,12.20
2022-09-25T19:06:29.354Z,12.30
2022-09-25T19:08:58.897Z,12.30
2022-09-25T19:11:28.288Z,12.30
2022-09-25T19:14:04.871Z,12.30
2022-09-25T19:16:38.514Z,12.40
2022-09-25T19:19:08.612Z,12.40
2022-09-25T19:21:39.065Z,12.40
2022-09-25T19:24:09.251Z,12.40
2022-09-25T19:26:44.838Z,12.40
2022-09-25T19:29:20.434Z,12.40
2022-09-25T19:31:56.334Z,12.50
2022-09-25T19:34:24.255Z,12.60
2022-09-25T19:36:55.393Z,12.70
2022-09-25T19:39:31.360Z,12.60
2022-09-25T19:42:02.893Z,12.60
2022-09-25T19:44:34.309Z,12.60
2022-09-25T19:47:04.234Z,12.40
2022-09-25T19:49:39.919Z,12.40
2022-09-25T19:52:09.819Z,12.30
2022-09-25T19:54:39.090Z,12.30
2022-09-25T19:57:09.411Z,12.20
2022-09-25T19:59:37.589Z,12.30
2022-09-25T20:02:07.801Z,12.20
2022-09-25T20:04:39.000Z,12.20
2022-09-25T20:07:08.979Z,12.20
2022-09-25T20:09:39.914Z,12.20
2022-09-25T20:12:17.740Z,12.20
2022-09-25T20:14:47.179Z,12.30
2022-09-25T20:17:18.062Z,12.30
2022-09-25T20:19:48.533Z,12.40
2022-09-25T20:22:19.169Z,12.30
2022-09-25T20:24:48.820Z,12.30
2022-09-25T20:27:20.986Z,12.40
2022-09-25T20:29:54.749Z,12.40
2022-09-25T20:32:27.141Z,12.40
2022-09-25T20:35:03.176Z,12.30
2022-09-25T20:37:43.124Z,12.30
2022-09-25T20:40:11.726Z,12.30
2022-09-25T20:42:49.236Z,12.30
2022-09-25T20:45:16.470Z,12.30
2022-09-25T20:47:48.167Z,12.30
2022-09-25T20:50:19.424Z,12.20
2022-09-25T20:52:46.790Z,12.10
2022-09-25T20:55:23.155Z,12.00
2022-09-25T20:57:55.474Z,12.00
2022-09-25T21:00:24.112Z,12.00
2022-09-25T21:02:54.649Z,12.00
2022-09-25T21:05:23.585Z,12.10
2022-09-25T21:07:59.494Z,12.10
2022-09-25T21:10:28.815Z,12.10
2022-09-25T21:13:04.541Z,12.00
2022-09-25T21:15:42.290Z,12.00
2022-09-25T21:18:12.976Z,11.70
2022-09-25T21:20:49.923Z,11.60
2022-09-25T21:23:19.215Z,11.50
2022-09-25T21:25:49.736Z,11.40
2022-09-25T21:28:25.874Z,11.50
2022-09-25T21:30:56.634Z,11.60
2022-09-25T21:33:25.154Z,11.70
2022-09-25T21:35:57.159Z,11.70
2022-09-25T21:38:25.929Z,11.80
2022-09-25T21:41:23.893Z,11.80
2022-09-25T21:44:00.409Z,11.80
2022-09-25T21:46:31.346Z,11.80
2022-09-25T21:49:04.599Z,11.80
2022-09-25T21:51:38.434Z,11.70
2022-09-25T21:54:09.169Z,11.70
2022-09-25T21:56:38.369Z,11.70
2022-09-25T21:59:09.899Z,11.70
2022-09-25T22:01:39.701Z,11.70
2022-09-25T22:04:13.811Z,11.70
2022-09-25T22:06:50.015Z,11.70
2022-09-25T22:09:23.421Z,11.70
2022-09-25T22:11:53.775Z,11.60
2022-09-25T22:14:30.189Z,11.70
2022-09-25T22:16:58.880Z,11.60
2022-09-25T22:19:29.953Z,11.70
2022-09-25T22:22:00.575Z,11.70
2022-09-25T22:24:31.434Z,11.80
2022-09-25T22:27:09.681Z,11.90
2022-09-25T22:29:37.970Z,11.80
2022-09-25T22:32:07.399Z,11.80
2022-09-25T22:34:36.330Z,11.90
2022-09-25T22:37:04.614Z,11.90
2022-09-25T22:39:33.994Z,12.00
2022-09-25T22:42:05.049Z,11.90
2022-09-25T22:44:35.676Z,12.00
2022-09-25T22:47:05.878Z,12.00
2022-09-25T22:49:42.969Z,12.00
2022-09-25T22:52:13.385Z,12.10
2022-09-25T22:54:43.864Z,12.10
2022-09-25T22:57:14.191Z,12.10
2022-09-25T22:59:44.689Z,12.20
2022-09-25T23:02:20.251Z,12.20
2022-09-25T23:04:55.111Z,12.20
2022-09-25T23:07:33.414Z,12.20
2022-09-25T23:10:04.526Z,12.20
2022-09-25T23:12:36.554Z,12.10
2022-09-25T23:15:06.592Z,12.00
2022-09-25T23:17:36.694Z,12.10
2022-09-25T23:20:16.809Z,12.10
2022-09-25T23:22:44.193Z,12.00
2022-09-25T23:25:14.344Z,12.10
2022-09-25T23:27:48.275Z,12.10
2022-09-25T23:30:21.104Z,12.20
2022-09-25T23:32:51.239Z,12.20
2022-09-25T23:35:19.266Z,12.20
2022-09-25T23:37:47.969Z,12.20
2022-09-25T23:40:16.858Z,12.30
2022-09-25T23:42:46.629Z,12.30
2022-09-25T23:45:18.089Z,12.30
2022-09-25T23:47:48.102Z,12.30
2022-09-25T23:50:18.729Z,12.30
2022-09-25T23:52:47.888Z,12.30
2022-09-25T23:55:17.791Z,12.30
2022-09-25T23:57:49.198Z,12.30
